Time;durP1;ratioP1;P1;durP2;ratioP2;P2;SDS_P1;SDS_P2;PMS_P1;PMS_P2;Temp;Humidity;BMP_temperature;BMP_pressure;BME280_temperature;BME280_humidity;BME280_pressure;Samples;Min_cycle;Max_cycle;Signal;HPM_P1;HPM_P2
2023/07/04 00:01:42;;;;;;;2.10;1.90;;;;;;;17.99;100.00;100079.44;4951947;28;20329;-74
2023/07/04 00:04:08;;;;;;;2.27;2.00;;;;;;;17.97;100.00;100079.50;4962931;28;20263;-74
2023/07/04 00:06:36;;;;;;;2.20;2.00;;;;;;;17.96;100.00;100066.47;4954491;28;20313;-74
2023/07/04 00:09:02;;;;;;;1.93;1.80;;;;;;;17.95;100.00;100077.84;4971722;28;20191;-74
2023/07/04 00:11:29;;;;;;;1.67;1.57;;;;;;;17.91;100.00;100071.91;4950083;28;20205;-74
2023/07/04 00:13:55;;;;;;;2.13;1.83;;;;;;;17.89;100.00;100076.34;4951241;28;20196;-74
2023/07/04 00:16:21;;;;;;;1.70;1.60;;;;;;;17.87;100.00;100074.69;4947917;28;20211;-74
2023/07/04 00:18:46;;;;;;;1.70;1.60;;;;;;;17.84;100.00;100067.81;4970141;28;20217;-74
2023/07/04 00:21:14;;;;;;;2.20;1.70;;;;;;;17.83;100.00;100071.34;4957216;28;20277;-74
2023/07/04 00:23:45;;;;;;;2.17;1.97;;;;;;;17.80;100.00;100068.88;4945579;28;20206;-74
2023/07/04 00:26:12;;;;;;;1.53;1.43;;;;;;;17.78;100.00;100076.78;4950672;28;20223;-75
2023/07/04 00:28:42;;;;;;;1.77;1.63;;;;;;;17.76;100.00;100072.56;4943434;28;20294;-75
2023/07/04 00:31:10;;;;;;;1.80;1.53;;;;;;;17.74;100.00;100069.13;4943578;28;20284;-74
2023/07/04 00:33:36;;;;;;;2.00;1.73;;;;;;;17.74;100.00;100071.75;4952246;28;20687;-75
2023/07/04 00:36:07;;;;;;;2.07;1.87;;;;;;;17.73;100.00;100080.53;4943931;28;20216;-73
2023/07/04 00:38:34;;;;;;;1.53;1.43;;;;;;;17.72;100.00;100076.19;4949780;28;20195;-74
2023/07/04 00:41:01;;;;;;;2.13;1.93;;;;;;;17.73;100.00;100085.75;4947270;28;20205;-73
2023/07/04 00:43:45;;;;;;;1.70;1.60;;;;;;;17.73;100.00;100083.97;4948005;28;20249;-75
2023/07/04 00:46:14;;;;;;;1.87;1.70;;;;;;;17.72;100.00;100077.03;4953330;28;20208;-74
2023/07/04 00:48:40;;;;;;;1.43;1.33;;;;;;;17.71;100.00;100083.19;4945212;28;20180;-74
2023/07/04 00:51:09;;;;;;;2.17;1.70;;;;;;;17.70;100.00;100084.09;4963793;28;20209;-74
2023/07/04 00:53:35;;;;;;;2.10;1.73;;;;;;;17.68;100.00;100093.81;4950923;28;20190;-74
2023/07/04 00:56:00;;;;;;;2.13;1.93;;;;;;;17.66;100.00;100091.25;4956850;28;20219;-73
2023/07/04 00:58:26;;;;;;;1.90;1.80;;;;;;;17.64;100.00;100100.06;4963716;28;20199;-74
2023/07/04 01:00:51;;;;;;;2.37;2.00;;;;;;;17.63;100.00;100090.53;4962229;28;20190;-75
2023/07/04 01:03:20;;;;;;;1.97;1.77;;;;;;;17.64;100.00;100092.22;4950372;28;20186;-73
2023/07/04 01:06:14;;;;;;;2.27;2.00;;;;;;;17.69;100.00;100092.91;4947019;28;20265;-73
2023/07/04 01:08:43;;;;;;;1.90;1.80;;;;;;;17.74;100.00;100096.16;4951397;28;20201;-73
2023/07/04 01:11:16;;;;;;;2.90;1.97;;;;;;;17.80;100.00;100089.81;4948542;28;20326;-74
2023/07/04 01:13:45;;;;;;;2.30;2.10;;;;;;;17.86;100.00;100091.31;4957249;28;20233;-74
2023/07/04 01:16:19;;;;;;;2.53;1.87;;;;;;;17.90;100.00;100096.38;4952184;28;20205;-74
2023/07/04 01:18:48;;;;;;;2.13;1.93;;;;;;;17.97;100.00;100095.22;4940727;28;20277;-74
2023/07/04 01:21:17;;;;;;;2.53;1.80;;;;;;;18.00;100.00;100102.06;4942580;28;20192;-74
2023/07/04 01:24:07;;;;;;;2.00;1.73;;;;;;;18.04;100.00;100097.56;4945000;28;20282;-74
2023/07/04 01:26:39;;;;;;;1.70;1.60;;;;;;;18.05;100.00;100099.28;4949665;28;20227;-74
2023/07/04 01:29:08;;;;;;;2.20;2.00;;;;;;;18.06;100.00;100101.81;4952725;28;20265;-73
2023/07/04 01:31:35;;;;;;;2.10;1.90;;;;;;;18.08;100.00;100101.75;4962347;28;20203;-74
2023/07/04 01:34:04;;;;;;;2.07;1.87;;;;;;;18.08;100.00;100109.59;4948404;28;20668;-74
2023/07/04 01:36:32;;;;;;;1.93;1.60;;;;;;;18.09;100.00;100098.19;4946747;28;20281;-73
2023/07/04 01:38:58;;;;;;;1.97;1.80;;;;;;;18.09;100.00;100103.44;4947867;28;20206;-74
2023/07/04 01:41:26;;;;;;;2.77;1.60;;;;;;;18.11;100.00;100104.22;4956072;28;20193;-73
2023/07/04 01:44:03;;;;;;;1.50;1.40;;;;;;;18.13;100.00;100099.78;4951354;28;20183;-74
2023/07/04 01:46:28;;;;;;;1.67;1.57;;;;;;;18.15;100.00;100102.34;4949663;28;20207;-74
2023/07/04 01:48:55;;;;;;;1.50;1.40;;;;;;;18.16;100.00;100091.78;4961248;28;20239;-74
2023/07/04 01:51:29;;;;;;;1.53;1.43;;;;;;;18.19;100.00;100101.28;4987049;28;20557;-74
2023/07/04 01:53:55;;;;;;;1.80;1.50;;;;;;;18.20;100.00;100105.59;4952559;28;20199;-74
2023/07/04 01:56:20;;;;;;;2.13;1.50;;;;;;;18.21;100.00;100099.44;4950902;28;21014;-73
2023/07/04 01:58:46;;;;;;;1.80;1.67;;;;;;;18.22;100.00;100104.63;4963927;28;20214;-74
2023/07/04 02:01:11;;;;;;;1.70;1.60;;;;;;;18.20;100.00;100098.59;4950412;28;20195;-74
2023/07/04 02:03:37;;;;;;;4.20;1.50;;;;;;;18.18;100.00;100102.19;4953572;28;20191;-75
2023/07/04 02:06:02;;;;;;;1.67;1.57;;;;;;;18.16;100.00;100096.16;4984305;28;20297;-73
2023/07/04 02:08:28;;;;;;;1.77;1.60;;;;;;;18.11;100.00;100101.63;4953868;28;20724;-74
2023/07/04 02:10:53;;;;;;;2.83;1.70;;;;;;;18.07;100.00;100092.22;4961825;28;20218;-74
2023/07/04 02:13:19;;;;;;;1.90;1.67;;;;;;;18.04;100.00;100102.81;4954278;28;20346;-74
2023/07/04 02:15:44;;;;;;;1.90;1.60;;;;;;;18.00;100.00;100096.00;4950600;28;20833;-75
2023/07/04 02:18:09;;;;;;;1.90;1.67;;;;;;;17.96;100.00;100098.72;4956325;28;20664;-74
2023/07/04 02:20:35;;;;;;;2.13;1.93;;;;;;;17.93;100.00;100090.97;4958941;28;20929;-74
2023/07/04 02:23:00;;;;;;;2.00;1.80;;;;;;;17.89;100.00;100084.19;4954215;28;20294;-74
2023/07/04 02:25:26;;;;;;;1.70;1.60;;;;;;;17.86;100.00;100094.78;4954085;28;20230;-74
2023/07/04 02:27:51;;;;;;;1.50;1.37;;;;;;;17.81;100.00;100086.28;4948781;28;20600;-74
2023/07/04 02:30:16;;;;;;;1.50;1.40;;;;;;;17.77;100.00;100087.34;4949933;28;20568;-74
2023/07/04 02:32:42;;;;;;;1.37;1.27;;;;;;;17.74;100.00;100082.22;4948152;28;20244;-74
2023/07/04 02:35:07;;;;;;;1.50;1.30;;;;;;;17.70;100.00;100084.09;4951581;28;20268;-74
2023/07/04 02:37:33;;;;;;;1.60;1.50;;;;;;;17.66;100.00;100075.53;4950935;28;20309;-74
2023/07/04 02:39:58;;;;;;;1.47;1.37;;;;;;;17.62;100.00;100084.41;4944654;28;20190;-74
2023/07/04 02:42:24;;;;;;;1.60;1.50;;;;;;;17.58;100.00;100077.63;4966660;28;20183;-75
2023/07/04 02:44:50;;;;;;;1.93;1.60;;;;;;;17.55;100.00;100076.88;4950303;28;20676;-74
2023/07/04 02:47:16;;;;;;;1.80;1.70;;;;;;;17.54;100.00;100085.69;4950569;28;20661;-74
2023/07/04 02:49:41;;;;;;;1.57;1.47;;;;;;;17.49;100.00;100084.09;4949336;28;20214;-74
2023/07/04 02:52:07;;;;;;;1.40;1.30;;;;;;;17.49;100.00;100093.69;4981626;28;20734;-74
2023/07/04 02:54:32;;;;;;;1.80;1.70;;;;;;;17.45;100.00;100090.34;4964166;28;20206;-74
2023/07/04 02:56:59;;;;;;;1.70;1.60;;;;;;;17.44;100.00;100096.50;4962287;28;20207;-74
2023/07/04 02:59:24;;;;;;;1.80;1.60;;;;;;;17.43;100.00;100094.78;4948868;28;20214;-74
2023/07/04 03:01:51;;;;;;;1.57;1.43;;;;;;;17.42;100.00;100087.88;4947013;28;20191;-74
2023/07/04 03:04:16;;;;;;;1.67;1.30;;;;;;;17.42;100.00;100087.88;4969841;28;20563;-74
2023/07/04 03:06:42;;;;;;;1.87;1.77;;;;;;;17.43;100.00;100086.94;4950094;28;20221;-74
2023/07/04 03:09:07;;;;;;;1.53;1.43;;;;;;;17.43;100.00;100088.72;4962780;28;20200;-74
2023/07/04 03:11:32;;;;;;;2.77;1.90;;;;;;;17.45;100.00;100092.13;4987222;28;20213;-74
2023/07/04 03:13:57;;;;;;;1.50;1.40;;;;;;;17.47;100.00;100095.53;4957158;28;20201;-74
2023/07/04 03:16:23;;;;;;;1.80;1.70;;;;;;;17.51;100.00;100097.09;4957336;28;20217;-74
2023/07/04 03:18:48;;;;;;;1.63;1.53;;;;;;;17.50;100.00;100098.88;4980903;28;20192;-74
2023/07/04 03:21:14;;;;;;;2.13;1.57;;;;;;;17.50;100.00;100103.25;4948485;28;20246;-74
2023/07/04 03:23:39;;;;;;;1.87;1.73;;;;;;;17.50;100.00;100103.25;4953053;28;20191;-74
2023/07/04 03:26:04;;;;;;;2.07;1.87;;;;;;;17.51;100.00;100104.94;4953167;28;20218;-74
2023/07/04 03:28:29;;;;;;;1.63;1.53;;;;;;;17.50;100.00;100101.50;4951454;28;20597;-74
2023/07/04 03:30:55;;;;;;;1.83;1.57;;;;;;;17.51;100.00;100107.56;4981764;28;20211;-73
2023/07/04 03:33:21;;;;;;;1.73;1.63;;;;;;;17.51;100.00;100102.34;4956630;28;20198;-74
2023/07/04 03:35:46;;;;;;;2.37;1.70;;;;;;;17.52;100.00;100109.28;4950880;28;20970;-73
2023/07/04 03:38:11;;;;;;;2.30;1.87;;;;;;;17.53;100.00;100108.34;4959430;28;20238;-73
2023/07/04 03:40:37;;;;;;;2.37;1.90;;;;;;;17.52;100.00;100106.66;4955464;28;20249;-74
2023/07/04 03:43:02;;;;;;;1.80;1.40;;;;;;;17.51;100.00;100113.66;4947074;28;20190;-74
2023/07/04 03:45:27;;;;;;;1.70;1.57;;;;;;;17.53;100.00;100118.81;4948037;28;20647;-74
2023/07/04 03:47:53;;;;;;;2.23;1.60;;;;;;;17.53;100.00;100121.44;4949791;28;20202;-74
2023/07/04 03:50:18;;;;;;;1.60;1.50;;;;;;;17.52;100.00;100117.13;4956087;28;20215;-73
2023/07/04 03:52:44;;;;;;;1.60;1.50;;;;;;;17.52;100.00;100124.97;4955653;28;20189;-73
2023/07/04 03:55:09;;;;;;;1.77;1.67;;;;;;;17.54;100.00;100127.53;4947950;28;20191;-73
2023/07/04 03:57:35;;;;;;;2.17;1.97;;;;;;;17.55;100.00;100126.59;4950567;28;20576;-75
2023/07/04 04:00:00;;;;;;;2.97;1.60;;;;;;;17.58;100.00;100132.59;4947023;28;20182;-75
2023/07/04 04:02:25;;;;;;;1.83;1.70;;;;;;;17.63;100.00;100132.38;4946968;28;21489;-74
2023/07/04 04:04:51;;;;;;;1.90;1.77;;;;;;;17.70;100.00;100141.69;4948051;28;20286;-74
2023/07/04 04:07:16;;;;;;;2.00;1.60;;;;;;;17.76;100.00;100136.19;4950077;28;20216;-74
2023/07/04 04:09:42;;;;;;;1.77;1.63;;;;;;;17.81;100.00;100134.25;4950359;28;20629;-75
2023/07/04 04:12:09;;;;;;;2.10;1.90;;;;;;;17.86;100.00;100134.06;4955035;28;20677;-76
2023/07/04 04:14:36;;;;;;;2.60;1.83;;;;;;;17.92;100.00;100135.56;4955486;28;20226;-75
2023/07/04 04:17:03;;;;;;;2.13;1.93;;;;;;;17.97;100.00;100139.72;4949935;28;20246;-76
2023/07/04 04:19:28;;;;;;;1.90;1.80;;;;;;;18.00;100.00;100143.97;4951874;28;20255;-75
2023/07/04 04:21:55;;;;;;;3.00;2.20;;;;;;;18.06;100.00;100141.09;4954454;28;20619;-76
2023/07/04 04:24:21;;;;;;;3.13;2.10;;;;;;;18.16;100.00;100143.31;4947821;28;20196;-74
2023/07/04 04:26:46;;;;;;;1.97;1.87;;;;;;;18.32;100.00;100146.13;4947378;28;20213;-75
2023/07/04 04:29:13;;;;;;;2.10;1.90;;;;;;;18.43;100.00;100144.75;4936483;28;20557;-76
2023/07/04 04:31:39;;;;;;;2.40;2.10;;;;;;;18.56;100.00;100152.06;4950317;28;20216;-75
2023/07/04 04:34:06;;;;;;;2.63;2.10;;;;;;;18.65;100.00;100146.41;4949232;28;20278;-76
2023/07/04 04:36:32;;;;;;;3.57;2.40;;;;;;;18.72;100.00;100154.84;4963500;28;20701;-76
2023/07/04 04:39:01;;;;;;;2.53;2.33;;;;;;;18.78;100.00;100146.72;4944712;28;20257;-76
2023/07/04 04:41:27;;;;;;;2.90;2.40;;;;;;;18.93;100.00;100162.66;4942238;28;20193;-75
2023/07/04 04:43:54;;;;;;;2.37;2.17;;;;;;;19.17;100.00;100151.06;4944591;28;20689;-76
2023/07/04 04:46:20;;;;;;;2.50;2.27;;;;;;;19.56;100.00;100151.84;4955471;28;20988;-76
2023/07/04 04:48:45;;;;;;;2.43;2.13;;;;;;;20.02;100.00;100150.50;4955683;28;20190;-75
2023/07/04 04:51:12;;;;;;;2.73;2.20;;;;;;;20.52;100.00;100159.31;4950775;28;20305;-75
2023/07/04 04:53:40;;;;;;;2.70;2.27;;;;;;;21.04;100.00;100155.69;4945564;28;20264;-76
2023/07/04 04:56:09;;;;;;;2.43;2.23;;;;;;;21.51;100.00;100150.50;4978335;28;20210;-76
2023/07/04 04:58:36;;;;;;;2.60;2.40;;;;;;;21.95;100.00;100152.38;4951376;28;20527;-76
2023/07/04 05:01:16;;;;;;;2.33;2.13;;;;;;;22.37;100.00;100165.72;4942432;28;20216;-76
2023/07/04 05:03:45;;;;;;;2.57;2.23;;;;;;;22.64;98.89;100157.09;4944533;28;20277;-75
2023/07/04 05:06:12;;;;;;;3.53;2.53;;;;;;;22.89;97.68;100152.94;4963191;28;20722;-76
2023/07/04 05:08:37;;;;;;;3.10;2.80;;;;;;;23.13;95.72;100156.66;4948752;28;20195;-76
2023/07/04 05:11:07;;;;;;;5.27;2.67;;;;;;;23.39;94.88;100158.59;4968508;28;20243;-76
2023/07/04 05:13:34;;;;;;;6.00;2.90;;;;;;;23.77;93.49;100149.09;4960764;28;20218;-75
2023/07/04 05:16:01;;;;;;;3.33;2.73;;;;;;;23.92;92.02;100158.66;4943279;28;20277;-75
2023/07/04 05:18:28;;;;;;;3.00;2.47;;;;;;;24.28;91.27;100154.47;4948201;28;20783;-77
2023/07/04 05:21:21;;;;;;;3.10;2.47;;;;;;;24.60;88.94;100164.59;4947725;28;20194;-75
2023/07/04 05:23:48;;;;;;;3.47;2.70;;;;;;;24.74;88.03;100162.81;4946015;28;20218;-76
2023/07/04 05:26:16;;;;;;;5.17;2.53;;;;;;;24.85;86.87;100164.72;4970990;28;20214;-77
2023/07/04 05:28:42;;;;;;;2.90;2.47;;;;;;;25.17;85.65;100162.41;4949548;28;20229;-77
2023/07/04 05:31:16;;;;;;;4.90;2.20;;;;;;;25.42;84.79;100172.06;4948289;28;20242;-76
2023/07/04 05:33:42;;;;;;;2.97;1.90;;;;;;;25.38;84.08;100164.44;4947781;29;20541;-76
2023/07/04 05:36:10;;;;;;;2.57;2.37;;;;;;;25.81;83.03;100166.56;4947070;29;20292;-74
2023/07/04 05:38:36;;;;;;;2.93;2.30;;;;;;;26.40;80.55;100166.63;4960788;28;20190;-76
2023/07/04 05:41:02;;;;;;;2.65;2.30;;;;;;;26.30;80.15;100167.34;4949871;28;20222;-78
2023/07/04 05:43:28;;;;;;;3.40;2.63;;;;;;;25.97;81.05;100162.75;4947537;28;20194;-76
2023/07/04 05:45:54;;;;;;;3.83;2.40;;;;;;;26.41;79.91;100168.31;4949761;28;20213;-75
2023/07/04 05:48:20;;;;;;;4.85;2.60;;;;;;;26.38;79.55;100169.41;4949663;28;20221;-75
2023/07/04 05:50:54;;;;;;;4.00;2.88;;;;;;;26.84;78.25;100167.59;4949799;28;20203;-75
2023/07/04 05:53:23;;;;;;;3.40;2.80;;;;;;;26.28;78.72;100165.75;4949410;28;20194;-75
2023/07/04 05:55:49;;;;;;;4.78;2.50;;;;;;;26.51;78.62;100173.75;4949823;28;20265;-74
2023/07/04 05:58:14;;;;;;;3.35;2.50;;;;;;;27.07;77.90;100168.41;4969682;28;20714;-75
2023/07/04 06:00:39;;;;;;;2.65;2.45;;;;;;;27.18;77.30;100167.56;4947811;28;20174;-75
2023/07/04 06:03:05;;;;;;;6.40;2.20;;;;;;;27.95;75.29;100165.69;4943372;28;20191;-75
2023/07/04 06:05:30;;;;;;;3.05;2.20;;;;;;;28.57;72.55;100165.78;4946544;28;21113;-76
2023/07/04 06:07:56;;;;;;;3.50;2.63;;;;;;;28.71;70.89;100177.03;4945400;28;20536;-75
2023/07/04 06:10:22;;;;;;;3.08;2.78;;;;;;;29.03;70.49;100170.72;4947897;28;20712;-74
2023/07/04 06:12:49;;;;;;;3.80;2.42;;;;;;;29.33;69.55;100174.28;4948193;28;20184;-75
2023/07/04 06:15:15;;;;;;;4.53;3.00;;;;;;;29.21;69.67;100176.22;4948644;28;20241;-74
2023/07/04 06:17:40;;;;;;;3.72;2.58;;;;;;;29.64;68.82;100176.84;4948906;28;20636;-75
2023/07/04 06:20:06;;;;;;;3.28;2.70;;;;;;;29.73;67.46;100184.00;4945258;28;20210;-75
2023/07/04 06:22:31;;;;;;;3.47;2.28;;;;;;;30.05;67.55;100185.53;4942331;28;20723;-76
2023/07/04 06:24:57;;;;;;;3.78;2.40;;;;;;;30.29;66.79;100178.03;4948911;28;20186;-75
2023/07/04 06:27:22;;;;;;;4.50;2.53;;;;;;;30.48;65.72;100183.31;4979716;28;20222;-75
2023/07/04 06:29:47;;;;;;;4.35;2.38;;;;;;;30.54;65.56;100180.09;4946877;28;20238;-76
2023/07/04 06:32:12;;;;;;;3.65;2.35;;;;;;;30.47;63.58;100178.97;4948326;28;20704;-74
2023/07/04 06:34:38;;;;;;;3.08;2.70;;;;;;;30.50;63.67;100189.34;4953964;28;20189;-76
2023/07/04 06:37:04;;;;;;;3.78;2.38;;;;;;;30.46;63.64;100185.28;4947807;28;20241;-74
2023/07/04 06:39:29;;;;;;;4.80;2.83;;;;;;;30.51;63.13;100187.50;4947317;28;20187;-75
2023/07/04 06:41:54;;;;;;;3.30;2.47;;;;;;;30.53;63.76;100188.22;4967201;28;20195;-76
2023/07/04 06:44:19;;;;;;;4.35;2.88;;;;;;;30.58;63.58;100190.47;4944468;28;20297;-75
2023/07/04 06:46:45;;;;;;;2.70;2.50;;;;;;;30.57;63.18;100197.66;4946248;28;20206;-74
2023/07/04 06:49:10;;;;;;;4.25;2.75;;;;;;;30.77;62.95;100189.56;4947471;28;20210;-74
2023/07/04 06:51:35;;;;;;;4.18;2.53;;;;;;;30.87;62.92;100193.03;4946506;28;20228;-76
2023/07/04 06:54:01;;;;;;;3.85;2.95;;;;;;;30.56;62.43;100193.31;4948235;28;20193;-75
2023/07/04 06:56:27;;;;;;;5.95;2.75;;;;;;;30.67;62.92;100198.44;4941374;28;20215;-75
2023/07/04 06:58:53;;;;;;;2.72;2.28;;;;;;;30.87;61.94;100204.53;4946116;28;20267;-75
2023/07/04 07:01:22;;;;;;;3.75;2.88;;;;;;;30.98;60.95;100195.47;4947973;28;20217;-75
2023/07/04 07:03:49;;;;;;;4.25;2.97;;;;;;;30.66;59.21;100202.09;4947614;28;20221;-76
2023/07/04 07:06:15;;;;;;;4.22;3.15;;;;;;;30.85;59.97;100211.03;4949236;28;20210;-76
2023/07/04 07:08:40;;;;;;;5.15;2.85;;;;;;;30.81;59.57;100206.97;4950285;28;20182;-76
2023/07/04 07:11:09;;;;;;;4.65;2.80;;;;;;;30.38;60.12;100212.72;4949998;28;20211;-76
2023/07/04 07:13:35;;;;;;;3.15;2.55;;;;;;;30.78;60.22;100209.94;4950681;28;20190;-76
2023/07/04 07:16:15;;;;;;;4.43;3.08;;;;;;;30.94;57.90;100211.97;4966688;28;20214;-75
2023/07/04 07:18:42;;;;;;;4.05;3.10;;;;;;;31.21;59.41;100204.94;4951204;28;20249;-76
2023/07/04 07:21:08;;;;;;;4.80;2.70;;;;;;;31.10;59.62;100204.16;4950583;28;20214;-75
2023/07/04 07:23:36;;;;;;;3.90;3.10;;;;;;;30.45;60.34;100214.81;4952040;28;20237;-75
2023/07/04 07:26:03;;;;;;;3.55;2.72;;;;;;;30.21;59.88;100210.78;4949672;28;20301;-76
2023/07/04 07:28:31;;;;;;;3.60;2.60;;;;;;;29.78;59.89;100219.09;4951634;28;20209;-75
2023/07/04 07:31:08;;;;;;;3.45;2.65;;;;;;;29.21;60.98;100218.84;4948135;28;20199;-75
2023/07/04 07:33:35;;;;;;;3.42;2.55;;;;;;;28.81;61.62;100220.56;4951380;28;20396;-76
2023/07/04 07:36:12;;;;;;;5.03;2.53;;;;;;;28.65;61.73;100217.53;4943642;28;20586;-76
2023/07/04 07:38:37;;;;;;;6.32;3.08;;;;;;;28.35;62.50;100217.38;4951376;29;20190;-76
2023/07/04 07:41:04;;;;;;;3.95;3.13;;;;;;;28.15;63.15;100213.75;4952383;28;20202;-75
2023/07/04 07:43:30;;;;;;;3.40;2.55;;;;;;;28.41;62.96;100221.31;4946957;28;20190;-74
2023/07/04 07:45:55;;;;;;;4.00;2.78;;;;;;;28.78;62.99;100215.50;4949987;28;20310;-75
2023/07/04 07:48:21;;;;;;;5.22;3.08;;;;;;;29.12;62.67;100209.84;4951704;28;20605;-75
2023/07/04 07:50:46;;;;;;;5.43;3.22;;;;;;;29.55;61.74;100204.38;4944040;28;21045;-76
2023/07/04 07:53:13;;;;;;;3.88;2.85;;;;;;;30.06;60.48;100211.22;4951958;28;20194;-76
2023/07/04 07:55:39;;;;;;;4.13;3.05;;;;;;;30.05;59.58;100203.38;4950217;28;20943;-76
2023/07/04 07:58:05;;;;;;;4.35;2.92;;;;;;;29.93;59.75;100214.19;4954824;28;20654;-76
2023/07/04 08:00:30;;;;;;;5.07;3.05;;;;;;;29.77;59.55;100209.41;4953847;28;20185;-75
2023/07/04 08:02:56;;;;;;;7.25;3.63;;;;;;;28.90;61.04;100211.78;4951494;28;20199;-75
2023/07/04 08:05:21;;;;;;;6.32;3.30;;;;;;;29.11;61.03;100212.66;4951501;28;20297;-75
2023/07/04 08:07:46;;;;;;;4.20;2.97;;;;;;;29.01;61.12;100209.97;4965590;28;20249;-76
2023/07/04 08:10:12;;;;;;;5.97;3.25;;;;;;;29.32;61.15;100213.44;4978879;28;20281;-75
2023/07/04 08:12:37;;;;;;;6.97;3.30;;;;;;;29.71;60.94;100203.78;4980773;28;20557;-75
2023/07/04 08:15:03;;;;;;;5.57;3.20;;;;;;;29.47;61.02;100203.22;4951233;28;20199;-75
2023/07/04 08:17:28;;;;;;;3.70;3.33;;;;;;;29.02;60.78;100209.00;4949176;28;20226;-75
2023/07/04 08:19:54;;;;;;;4.38;3.28;;;;;;;28.90;61.04;100206.44;4943674;28;20226;-76
2023/07/04 08:22:19;;;;;;;5.60;3.53;;;;;;;29.25;60.25;100198.13;4940235;29;20214;-75
2023/07/04 08:24:45;;;;;;;4.88;3.35;;;;;;;29.72;59.54;100187.66;4951268;28;20598;-77
2023/07/04 08:27:10;;;;;;;4.32;3.28;;;;;;;29.83;59.07;100191.16;4955039;28;20285;-75
2023/07/04 08:29:35;;;;;;;6.03;3.40;;;;;;;29.48;59.50;100204.06;4973610;28;20174;-76
2023/07/04 08:32:01;;;;;;;5.07;3.72;;;;;;;29.17;59.49;100201.47;4957024;28;20613;-77
2023/07/04 08:34:26;;;;;;;6.10;4.05;;;;;;;28.33;59.24;100192.69;4951065;28;20654;-76
2023/07/04 08:36:51;;;;;;;4.80;3.30;;;;;;;28.10;60.05;100195.50;4951672;28;20199;-76
2023/07/04 08:39:18;;;;;;;5.32;3.42;;;;;;;28.19;60.44;100193.91;4948472;28;20190;-75
2023/07/04 08:41:56;;;;;;;5.15;3.50;;;;;;;28.14;60.54;100190.78;4948313;28;20181;-76
2023/07/04 08:44:28;;;;;;;5.95;3.53;;;;;;;28.47;60.10;100183.53;4949235;28;20201;-76
2023/07/04 08:46:57;;;;;;;5.32;4.00;;;;;;;28.58;59.29;100185.28;4950960;28;20285;-77
2023/07/04 08:49:35;;;;;;;5.82;4.10;;;;;;;28.40;60.13;100196.53;4948324;28;20191;-77
2023/07/04 08:52:23;;;;;;;4.65;3.78;;;;;;;28.51;59.04;100189.44;4950198;28;20195;-76
2023/07/04 08:54:50;;;;;;;6.22;4.15;;;;;;;28.09;59.48;100192.94;4955912;28;20191;-75
2023/07/04 08:57:22;;;;;;;5.45;4.10;;;;;;;28.28;59.11;100190.44;4949153;28;20211;-75
2023/07/04 08:59:52;;;;;;;6.93;4.18;;;;;;;28.35;57.71;100188.09;4943197;28;20242;-75
2023/07/04 09:02:32;;;;;;;6.43;4.57;;;;;;;28.11;57.98;100188.38;4979724;28;20183;-76
2023/07/04 09:05:17;;;;;;;6.20;4.10;;;;;;;27.84;58.48;100185.19;4948873;28;20190;-76
2023/07/04 09:07:55;;;;;;;7.25;4.68;;;;;;;28.02;58.47;100181.16;4950738;28;20182;-74
2023/07/04 09:10:24;;;;;;;7.20;4.60;;;;;;;27.58;59.03;100192.72;4949810;28;20321;-75
2023/07/04 09:12:50;;;;;;;7.60;4.30;;;;;;;27.60;59.39;100190.78;4949990;28;20187;-76
2023/07/04 09:15:37;;;;;;;5.50;4.20;;;;;;;27.73;59.28;100187.91;4948162;28;20225;-77
2023/07/04 09:18:14;;;;;;;8.70;4.40;;;;;;;27.89;59.45;100176.88;4947050;28;20186;-76
2023/07/04 09:21:13;;;;;;;8.13;4.70;;;;;;;27.39;60.18;100191.53;4947508;28;20641;-75
2023/07/04 09:23:40;;;;;;;7.63;4.73;;;;;;;27.73;60.00;100189.75;4970696;28;20226;-76
2023/07/04 09:26:09;;;;;;;9.17;5.07;;;;;;;27.68;60.23;100185.66;4944689;28;20290;-74
2023/07/04 09:28:39;;;;;;;6.43;4.23;;;;;;;27.67;60.73;100199.09;4947654;28;20191;-75
2023/07/04 09:31:08;;;;;;;5.63;4.30;;;;;;;28.04;59.90;100182.69;4947669;28;20207;-75
2023/07/04 09:33:35;;;;;;;6.73;4.53;;;;;;;28.15;60.04;100179.16;4979370;28;20187;-75
2023/07/04 09:36:02;;;;;;;5.13;4.07;;;;;;;28.25;59.91;100181.88;4941741;28;20236;-76
2023/07/04 09:38:50;;;;;;;5.70;4.47;;;;;;;28.13;58.73;100187.25;4941966;28;20266;-76
2023/07/04 09:41:15;;;;;;;8.87;5.03;;;;;;;28.35;58.80;100180.09;4942415;28;20605;-76
2023/07/04 09:43:41;;;;;;;6.43;4.60;;;;;;;28.25;57.05;100181.88;4975853;28;20190;-76
2023/07/04 09:46:09;;;;;;;7.63;4.53;;;;;;;28.31;57.73;100175.19;4946526;28;20256;-76
2023/07/04 09:48:35;;;;;;;6.03;4.70;;;;;;;27.83;56.57;100182.69;4963708;28;20189;-75
2023/07/04 09:51:25;;;;;;;7.57;4.73;;;;;;;28.21;56.95;100180.44;4950759;28;20903;-75
2023/07/04 09:54:08;;;;;;;6.35;4.40;;;;;;;28.55;56.54;100189.03;4942583;28;20266;-76
2023/07/04 09:56:33;;;;;;;6.13;4.25;;;;;;;28.79;56.52;100179.06;4941022;28;20225;-76
2023/07/04 09:59:18;;;;;;;6.38;4.18;;;;;;;28.94;56.99;100180.38;4944590;28;20194;-75
2023/07/04 10:02:07;;;;;;;6.80;4.88;;;;;;;29.06;56.52;100167.78;4958150;28;20186;-76
2023/07/04 10:04:35;;;;;;;6.00;4.47;;;;;;;29.21;56.00;100170.88;4948186;28;20191;-76
2023/07/04 10:07:05;;;;;;;5.43;4.32;;;;;;;29.36;55.64;100163.38;4943544;28;20210;-76
2023/07/04 10:09:33;;;;;;;5.70;4.47;;;;;;;29.48;54.55;100172.09;4947492;28;20265;-76
2023/07/04 10:12:30;;;;;;;6.75;4.60;;;;;;;29.31;53.81;100165.56;4946102;28;20208;-76
2023/07/04 10:14:58;;;;;;;5.60;4.20;;;;;;;29.30;54.15;100158.56;4951755;28;20198;-76
2023/07/04 10:17:26;;;;;;;4.32;3.80;;;;;;;29.18;54.64;100160.53;4946505;28;20991;-75
2023/07/04 10:19:55;;;;;;;4.90;4.22;;;;;;;29.26;54.77;100160.66;4957614;28;20656;-76
2023/07/04 10:22:38;;;;;;;5.93;4.38;;;;;;;29.17;54.40;100169.50;4947032;28;20214;-76
2023/07/04 10:25:11;;;;;;;6.05;4.38;;;;;;;29.01;53.09;100164.69;4982431;28;20334;-76
2023/07/04 10:27:39;;;;;;;7.97;4.60;;;;;;;28.97;52.25;100161.47;4970570;28;21008;-76
2023/07/04 10:30:08;;;;;;;7.05;4.63;;;;;;;29.03;53.35;100149.41;4960196;28;20227;-76
2023/07/04 10:32:39;;;;;;;5.38;3.95;;;;;;;29.15;53.70;100158.97;4973500;28;20202;-76
2023/07/04 10:35:10;;;;;;;4.60;4.13;;;;;;;29.38;53.37;100156.09;4977958;28;20221;-76
2023/07/04 10:37:37;;;;;;;5.75;4.55;;;;;;;29.33;51.97;100152.94;4948425;28;20882;-77
2023/07/04 10:40:08;;;;;;;4.80;4.13;;;;;;;29.47;53.39;100155.22;4957265;28;20194;-76
2023/07/04 10:42:39;;;;;;;6.15;4.32;;;;;;;29.32;52.54;100153.94;4948992;28;20189;-75
2023/07/04 10:45:06;;;;;;;6.23;5.20;;;;;;;29.17;52.76;100146.34;4961587;28;20175;-76
2023/07/04 10:47:35;;;;;;;7.68;4.72;;;;;;;29.01;52.31;100157.53;4955903;28;20677;-76
2023/07/04 10:50:19;;;;;;;6.55;5.15;;;;;;;29.12;52.35;100148.56;4963951;28;20206;-76
2023/07/04 10:52:47;;;;;;;5.93;4.53;;;;;;;28.99;53.81;100145.31;4951606;28;20565;-75
2023/07/04 10:55:25;;;;;;;6.68;5.13;;;;;;;29.03;53.63;100144.94;4950483;28;20202;-75
2023/07/04 10:58:03;;;;;;;6.57;4.73;;;;;;;28.66;52.21;100147.34;4952703;28;20672;-75
2023/07/04 11:00:35;;;;;;;5.60;4.37;;;;;;;28.72;52.78;100141.44;4944607;28;21140;-76
2023/07/04 11:03:06;;;;;;;6.03;4.43;;;;;;;28.79;52.30;100139.13;4948927;28;20197;-75
2023/07/04 11:05:36;;;;;;;8.00;4.83;;;;;;;28.80;54.00;100139.00;4983369;28;20270;-76
2023/07/04 11:08:02;;;;;;;10.17;5.00;;;;;;;28.39;54.01;100133.63;4965417;28;20190;-77
2023/07/04 11:10:31;;;;;;;6.73;4.30;;;;;;;28.39;54.83;100130.09;4943412;28;20304;-76
2023/07/04 11:12:57;;;;;;;5.83;4.80;;;;;;;28.28;53.93;100136.38;4946463;28;20241;-76
2023/07/04 11:15:33;;;;;;;5.00;4.40;;;;;;;28.64;53.29;100131.47;4950496;28;20214;-77
2023/07/04 11:17:59;;;;;;;8.30;4.73;;;;;;;28.85;52.58;100131.41;4945914;28;20182;-76
2023/07/04 11:20:40;;;;;;;6.07;4.40;;;;;;;28.59;54.42;100129.22;4950508;28;20210;-77
2023/07/04 11:23:15;;;;;;;6.80;4.80;;;;;;;28.71;53.62;100121.13;4950128;28;20194;-77
2023/07/04 11:25:41;;;;;;;6.77;4.10;;;;;;;28.94;54.35;100123.59;4948988;28;20206;-75
2023/07/04 11:28:33;;;;;;;6.10;4.50;;;;;;;28.94;53.57;100120.94;4965422;28;20206;-77